Startpagina
METAR-TAF:

METAR-TAF

Vliegvelden :

Bütgenbach, België

Elsenborn

breedte: 50-28N, lengte: 006-11E, hoogte: 564 m

Actueel weer

Dit bericht is 46 minuten geleden gemaakt, om 06:55 UTC
Wind 12 kt uit het westzuidwesten
Temperatuur 9°C
Vochtigheid 93%
Druk 1006 hPa
Zicht 10 km of meer
lichte motregen

METAR: EBLB 240655Z AUTO 24012KT 9999 -DZ OVC009/// 09/08 Q1006 GRN

Tijdstip: 08:41 (07:41 UTC)


TAF: ontbreekt

Waarnemingen en weersverwachtingen van meer dan 4000 vliegvelden (METAR en TAF).

De beschikbare stations zijn de gele en rode punten op de kaart.

Ga met uw muis naar het station om de naam te zien.

Klik dan om waarnemingen en weersverwachtingen te zien.

kaart wijzigen: klik op de groene knoppen met een zwart kruis om in te zoomen, op de groene knop met een streepje om uit te zoomen of op de groene pijlen voor aangrenzende kaarten.


METAR-TAF: